createdAt,value
2022-10-30T00:00:39.258Z,11.69
2022-10-30T00:03:06.340Z,11.64
2022-10-30T00:05:33.001Z,11.62
2022-10-30T00:08:00.099Z,11.61
2022-10-30T00:10:27.071Z,11.61
2022-10-30T00:12:54.330Z,11.65
2022-10-30T00:15:20.910Z,11.64
2022-10-30T00:17:47.464Z,11.59
2022-10-30T00:20:14.110Z,11.55
2022-10-30T00:22:40.640Z,11.58
2022-10-30T00:25:07.665Z,11.58
2022-10-30T00:27:34.228Z,11.54
2022-10-30T00:30:00.832Z,11.49
2022-10-30T00:32:28.131Z,11.49
2022-10-30T00:34:54.725Z,11.49
2022-10-30T00:37:21.438Z,11.47
2022-10-30T00:39:48.081Z,11.49
2022-10-30T00:42:16.104Z,11.49
2022-10-30T00:44:45.645Z,11.47
2022-10-30T00:47:15.687Z,11.44
2022-10-30T00:50:01.184Z,11.43
2022-10-30T00:52:31.851Z,11.48
2022-10-30T00:55:03.853Z,11.47
2022-10-30T00:57:30.400Z,11.46
2022-10-30T00:59:57.478Z,11.41
2022-10-30T01:02:24.276Z,11.41
2022-10-30T01:04:53.398Z,11.41
2022-10-30T01:07:20.043Z,11.42
2022-10-30T01:09:48.073Z,11.46
2022-10-30T01:12:15.567Z,11.43
2022-10-30T01:14:47.819Z,11.36
2022-10-30T01:17:35.496Z,11.33
2022-10-30T01:20:26.876Z,11.30
2022-10-30T01:23:06.820Z,11.29
2022-10-30T01:25:33.374Z,11.41
2022-10-30T01:28:15.927Z,11.41
2022-10-30T01:31:13.705Z,11.39
2022-10-30T01:34:12.168Z,11.33
2022-10-30T01:36:46.217Z,11.35
2022-10-30T01:39:28.150Z,11.35
2022-10-30T01:41:54.822Z,11.37
2022-10-30T01:44:31.737Z,11.38
2022-10-30T01:47:15.085Z,11.40
2022-10-30T01:50:19.157Z,11.43
2022-10-30T01:53:00.056Z,11.39
2022-10-30T01:55:35.388Z,11.40
2022-10-30T01:58:20.213Z,11.37
2022-10-30T02:00:52.699Z,11.32
2022-10-30T02:03:19.736Z,11.32
2022-10-30T02:05:49.710Z,11.31
2022-10-30T02:08:17.296Z,11.31
2022-10-30T02:10:46.281Z,11.26
2022-10-30T02:13:13.309Z,11.22
2022-10-30T02:15:41.814Z,11.24
2022-10-30T02:18:09.485Z,11.30
2022-10-30T02:20:37.135Z,11.32
2022-10-30T02:23:04.619Z,11.38
2022-10-30T02:25:31.397Z,11.40
2022-10-30T02:27:58.077Z,11.43
2022-10-30T02:30:24.713Z,11.42
2022-10-30T02:32:51.267Z,11.39
2022-10-30T02:35:17.812Z,11.47
2022-10-30T02:37:44.405Z,11.49
2022-10-30T02:40:12.343Z,11.45
2022-10-30T02:42:38.974Z,11.53
2022-10-30T02:45:05.906Z,11.55
2022-10-30T02:47:33.961Z,11.53
2022-10-30T02:50:00.550Z,11.54
2022-10-30T02:52:27.158Z,11.56
2022-10-30T02:54:53.713Z,11.51
2022-10-30T02:57:20.250Z,11.59
2022-10-30T02:59:46.850Z,11.61
2022-10-30T03:02:13.439Z,11.56
2022-10-30T03:04:40.086Z,11.62
2022-10-30T03:07:06.681Z,11.64
2022-10-30T03:09:33.263Z,11.71
2022-10-30T03:11:59.868Z,11.67
2022-10-30T03:14:26.758Z,11.66
2022-10-30T10:39:07.587Z,19.25
2022-10-30T10:41:34.132Z,19.33
2022-10-30T10:44:15.134Z,19.47
2022-10-30T10:47:14.085Z,19.50
2022-10-30T10:49:52.649Z,19.62
2022-10-30T10:52:24.807Z,19.65
2022-10-30T10:55:05.111Z,19.66
2022-10-30T10:57:37.991Z,19.75
2022-10-30T11:00:14.083Z,19.85
2022-10-30T11:02:42.361Z,19.87
2022-10-30T11:05:36.335Z,19.95
2022-10-30T11:08:33.116Z,20.00
2022-10-30T11:11:01.982Z,20.04
2022-10-30T11:13:31.984Z,20.08
2022-10-30T11:16:29.466Z,20.12
2022-10-30T11:19:00.469Z,20.24
2022-10-30T11:21:29.712Z,20.26
2022-10-30T11:23:56.268Z,20.26
2022-10-30T11:26:25.537Z,20.31
2022-10-30T11:28:57.346Z,20.37
2022-10-30T11:31:37.788Z,20.42
2022-10-30T11:34:19.923Z,20.43
2022-10-30T11:36:49.130Z,20.57
2022-10-30T11:39:24.899Z,20.52
2022-10-30T11:41:54.769Z,20.62
2022-10-30T11:44:30.740Z,20.60
2022-10-30T11:46:58.390Z,20.59
2022-10-30T11:49:48.397Z,20.67
2022-10-30T11:52:18.439Z,20.72
2022-10-30T11:54:50.738Z,20.79
2022-10-30T11:57:46.386Z,20.99
2022-10-30T12:00:28.104Z,21.06
2022-10-30T12:02:58.543Z,21.02
2022-10-30T12:05:25.288Z,21.12
2022-10-30T12:07:53.348Z,21.27
2022-10-30T12:10:28.165Z,21.30
2022-10-30T12:12:55.257Z,21.41
2022-10-30T12:15:26.526Z,21.41
2022-10-30T12:17:55.348Z,21.56
2022-10-30T12:20:22.211Z,21.64
2022-10-30T12:22:49.524Z,21.79
2022-10-30T12:25:40.161Z,21.91
2022-10-30T12:28:16.640Z,22.07
2022-10-30T12:30:50.184Z,22.25
2022-10-30T12:33:50.112Z,22.41
2022-10-30T12:36:28.053Z,22.56
2022-10-30T12:39:22.230Z,22.70
2022-10-30T12:42:01.625Z,22.90
2022-10-30T12:44:37.074Z,23.03
2022-10-30T12:47:03.697Z,23.23
2022-10-30T12:50:09.205Z,23.44
2022-10-30T12:52:53.919Z,23.72
2022-10-30T12:55:40.550Z,23.87
2022-10-30T12:58:26.293Z,24.02
2022-10-30T13:01:13.113Z,24.28
2022-10-30T13:03:48.651Z,24.57
2022-10-30T13:06:19.552Z,24.82
2022-10-30T13:09:15.545Z,24.90
2022-10-30T13:11:52.803Z,24.98
2022-10-30T13:14:22.537Z,24.85
2022-10-30T13:16:51.041Z,25.05
2022-10-30T13:19:17.657Z,25.27
2022-10-30T13:22:00.603Z,25.45
2022-10-30T13:25:05.276Z,25.49
2022-10-30T13:27:31.835Z,25.52
2022-10-30T13:30:07.194Z,25.34
2022-10-30T13:32:39.999Z,25.35
2022-10-30T13:35:21.978Z,25.29
2022-10-30T13:38:25.976Z,25.22
2022-10-30T13:40:56.331Z,25.58
2022-10-30T13:43:31.067Z,25.41
2022-10-30T13:46:26.630Z,25.10
2022-10-30T13:49:02.384Z,25.14
2022-10-30T13:52:10.362Z,25.22
2022-10-30T13:54:42.550Z,25.26
2022-10-30T13:57:15.108Z,24.97
2022-10-30T13:59:49.363Z,24.82
2022-10-30T14:03:05.396Z,24.85
2022-10-30T14:06:03.012Z,24.54
2022-10-30T14:08:56.588Z,24.37
2022-10-30T14:11:23.211Z,24.58
2022-10-30T14:13:58.378Z,24.43
2022-10-30T14:17:09.713Z,24.21
2022-10-30T14:20:12.487Z,23.85
2022-10-30T14:22:41.167Z,23.80
2022-10-30T14:25:16.180Z,23.71
2022-10-30T14:27:43.172Z,23.68
2022-10-30T14:30:20.380Z,23.57
2022-10-30T14:32:53.847Z,23.51
2022-10-30T14:35:35.873Z,23.25
2022-10-30T14:38:08.788Z,23.18
2022-10-30T14:40:42.090Z,22.84
2022-10-30T14:43:42.746Z,22.71
2022-10-30T14:46:32.232Z,22.61
2022-10-30T14:49:24.159Z,22.40
2022-10-30T14:52:32.741Z,22.22
2022-10-30T14:55:05.309Z,22.21
2022-10-30T14:57:51.485Z,21.95
2022-10-30T15:00:23.934Z,21.85
2022-10-30T15:02:56.642Z,21.81
2022-10-30T15:05:32.497Z,21.68
2022-10-30T15:08:31.139Z,21.56
2022-10-30T15:10:57.755Z,21.43
2022-10-30T15:13:24.457Z,21.38
2022-10-30T15:15:59.909Z,21.21
2022-10-30T15:18:30.527Z,21.11
2022-10-30T15:21:06.671Z,21.01
2022-10-30T15:23:36.011Z,20.91
2022-10-30T15:26:09.719Z,20.70
2022-10-30T15:28:38.919Z,20.61
2022-10-30T15:31:05.724Z,20.45
2022-10-30T15:33:35.514Z,20.40
2022-10-30T15:36:02.352Z,20.31
2022-10-30T15:38:29.318Z,20.27
2022-10-30T15:41:02.187Z,20.22
2022-10-30T15:43:33.666Z,20.08
2022-10-30T15:46:00.469Z,19.85
2022-10-30T15:48:33.812Z,19.71
2022-10-30T15:51:15.575Z,19.61
2022-10-30T15:53:53.239Z,19.53
2022-10-30T15:56:31.220Z,19.44
2022-10-30T15:59:01.807Z,19.32
2022-10-30T16:01:44.794Z,19.19
2022-10-30T16:04:25.034Z,19.18
2022-10-30T16:06:57.629Z,19.06
2022-10-30T16:09:25.620Z,18.99
2022-10-30T16:11:55.361Z,18.92
2022-10-30T16:14:24.720Z,18.85
2022-10-30T16:16:52.063Z,18.64
2022-10-30T16:19:28.043Z,18.57
2022-10-30T16:21:57.740Z,18.47
2022-10-30T16:24:35.256Z,18.38
2022-10-30T16:27:18.230Z,18.27
2022-10-30T16:29:46.967Z,18.13
2022-10-30T16:32:17.596Z,18.10
2022-10-30T16:34:46.190Z,17.95
2022-10-30T16:37:21.179Z,17.81
2022-10-30T16:39:50.796Z,17.74
2022-10-30T16:42:22.041Z,17.62
2022-10-30T16:44:48.873Z,17.56
2022-10-30T16:47:25.843Z,17.51
2022-10-30T16:49:56.684Z,17.46
2022-10-30T16:52:28.389Z,17.47
2022-10-30T16:55:07.905Z,17.38
2022-10-30T16:57:42.622Z,17.34
2022-10-30T17:00:24.429Z,17.37
2022-10-30T17:02:56.197Z,17.34
2022-10-30T17:05:34.301Z,17.23
2022-10-30T17:08:04.423Z,17.22
2022-10-30T17:10:35.232Z,17.14
2022-10-30T17:13:36.203Z,17.08
2022-10-30T17:16:29.577Z,17.04
2022-10-30T17:19:02.101Z,16.96
2022-10-30T17:21:38.412Z,16.90
2022-10-30T17:24:05.464Z,16.82
2022-10-30T17:26:41.042Z,16.74
2022-10-30T17:29:36.738Z,16.70
2022-10-30T17:32:20.341Z,16.58
2022-10-30T17:34:48.246Z,16.59
2022-10-30T17:37:14.905Z,16.58
2022-10-30T17:39:41.562Z,16.54
2022-10-30T17:42:10.238Z,16.44
2022-10-30T17:44:37.524Z,16.39
2022-10-30T17:47:18.724Z,16.37
2022-10-30T17:49:46.005Z,16.40
2022-10-30T17:52:21.919Z,16.35
2022-10-30T17:54:48.792Z,16.38
2022-10-30T17:57:16.758Z,16.33
2022-10-30T17:59:43.696Z,16.41
2022-10-30T18:02:19.137Z,16.43
2022-10-30T18:04:47.810Z,16.38
2022-10-30T18:07:16.381Z,16.59
2022-10-30T18:09:43.906Z,16.82
2022-10-30T18:12:17.148Z,16.81
2022-10-30T18:14:45.690Z,16.85
2022-10-30T18:17:12.901Z,16.83
2022-10-30T18:19:39.700Z,16.90
2022-10-30T18:22:06.365Z,17.19
2022-10-30T18:24:33.058Z,17.10
2022-10-30T18:26:59.730Z,17.50
2022-10-30T18:29:26.363Z,17.47
2022-10-30T18:31:52.984Z,17.53
2022-10-30T18:34:21.644Z,17.33
2022-10-30T18:36:48.874Z,17.44
2022-10-30T18:39:15.661Z,17.49
2022-10-30T18:41:46.590Z,17.39
2022-10-30T18:44:15.777Z,17.36
2022-10-30T18:46:43.132Z,17.32
2022-10-30T18:49:10.083Z,17.43
2022-10-30T18:51:37.268Z,17.34
2022-10-30T18:54:07.969Z,17.34
2022-10-30T18:56:34.520Z,17.26
2022-10-30T18:59:02.535Z,17.21
2022-10-30T19:01:33.317Z,17.22
2022-10-30T19:04:04.549Z,17.16
2022-10-30T19:06:34.360Z,17.12
2022-10-30T19:09:01.374Z,17.16
2022-10-30T19:11:30.839Z,17.14
2022-10-30T19:13:58.328Z,17.11
2022-10-30T19:16:25.445Z,17.11
2022-10-30T19:18:52.801Z,17.08
2022-10-30T19:21:22.663Z,17.15
2022-10-30T19:23:49.733Z,17.20
2022-10-30T19:26:17.579Z,17.22
2022-10-30T19:28:45.419Z,17.16
2022-10-30T19:31:16.809Z,17.17
2022-10-30T19:33:44.057Z,17.18
2022-10-30T19:36:26.287Z,17.22
2022-10-30T19:38:52.950Z,17.18
2022-10-30T19:41:19.745Z,17.12
2022-10-30T19:43:46.419Z,17.16
2022-10-30T19:46:14.758Z,17.10
2022-10-30T19:48:56.767Z,17.05
2022-10-30T19:51:24.109Z,17.05
2022-10-30T19:53:52.696Z,17.00
2022-10-30T19:56:20.345Z,16.98
2022-10-30T19:58:46.973Z,17.11
2022-10-30T20:01:14.244Z,17.06
2022-10-30T20:03:40.936Z,17.06
2022-10-30T20:06:07.729Z,17.01
2022-10-30T20:08:34.376Z,17.02
2022-10-30T20:11:02.399Z,16.90
2022-10-30T20:13:30.275Z,16.87
2022-10-30T20:15:59.310Z,16.86
2022-10-30T20:18:31.658Z,16.81
2022-10-30T20:21:00.745Z,16.79
2022-10-30T20:23:28.064Z,16.78
2022-10-30T20:25:59.873Z,16.76
2022-10-30T20:28:31.504Z,16.66
2022-10-30T20:30:58.200Z,16.62
2022-10-30T20:33:27.986Z,16.60
2022-10-30T20:35:55.278Z,16.49
2022-10-30T20:38:29.261Z,16.45
2022-10-30T20:40:57.304Z,16.30
2022-10-30T20:43:32.976Z,16.24
2022-10-30T20:46:00.747Z,16.14
2022-10-30T20:48:28.783Z,16.11
2022-10-30T20:50:59.795Z,16.04
2022-10-30T20:53:26.892Z,16.03
2022-10-30T20:55:53.499Z,15.95
2022-10-30T20:58:20.344Z,15.89
2022-10-30T21:00:47.649Z,15.81
2022-10-30T21:03:14.903Z,15.73
2022-10-30T21:05:45.103Z,15.66
2022-10-30T21:08:14.130Z,15.62
2022-10-30T21:10:41.760Z,15.59
2022-10-30T21:13:09.560Z,15.52
2022-10-30T21:15:42.926Z,15.48
2022-10-30T21:18:10.839Z,15.46
2022-10-30T21:20:37.835Z,15.36
2022-10-30T21:23:05.242Z,15.30
2022-10-30T21:25:32.634Z,15.34
2022-10-30T21:27:59.984Z,15.28
2022-10-30T21:30:27.517Z,15.21
2022-10-30T21:32:54.099Z,15.17
2022-10-30T21:35:21.005Z,15.25
2022-10-30T21:37:47.681Z,15.25
2022-10-30T21:40:14.404Z,15.24
2022-10-30T21:42:41.052Z,15.19
2022-10-30T21:45:08.728Z,15.13
2022-10-30T21:47:35.408Z,15.12
2022-10-30T21:50:06.277Z,15.12
2022-10-30T21:52:36.208Z,15.10
2022-10-30T21:55:03.101Z,14.98
2022-10-30T21:57:29.795Z,14.91
2022-10-30T21:59:58.851Z,14.88
2022-10-30T22:02:28.359Z,14.83
2022-10-30T22:04:55.289Z,14.71
2022-10-30T22:07:21.979Z,14.58
2022-10-30T22:09:48.584Z,14.49
2022-10-30T22:12:15.150Z,14.42
2022-10-30T22:14:41.775Z,14.28
2022-10-30T22:17:08.802Z,14.20
2022-10-30T22:19:35.434Z,14.17
2022-10-30T22:22:02.030Z,14.06
2022-10-30T22:24:28.657Z,13.98
2022-10-30T22:26:55.280Z,13.87
2022-10-30T22:29:21.979Z,13.83
2022-10-30T22:31:49.769Z,13.73
2022-10-30T22:34:16.373Z,13.63
2022-10-30T22:36:43.065Z,13.54
2022-10-30T22:39:13.834Z,13.43
2022-10-30T22:41:41.431Z,13.39
2022-10-30T22:44:12.586Z,13.35
2022-10-30T22:46:39.401Z,13.29
2022-10-30T22:49:07.199Z,13.16
2022-10-30T22:51:36.582Z,13.09
2022-10-30T22:54:04.013Z,12.91
2022-10-30T22:56:36.165Z,12.93
2022-10-30T22:59:08.170Z,12.92
2022-10-30T23:01:36.811Z,12.93
2022-10-30T23:04:05.327Z,12.85
2022-10-30T23:06:34.252Z,12.80
2022-10-30T23:09:03.569Z,12.73
2022-10-30T23:11:30.514Z,12.71
2022-10-30T23:13:57.454Z,12.66
2022-10-30T23:16:26.005Z,12.67
2022-10-30T23:18:55.446Z,12.58
2022-10-30T23:21:23.118Z,12.50
2022-10-30T23:23:50.334Z,12.46
2022-10-30T23:26:21.572Z,12.39
2022-10-30T23:28:49.645Z,12.35
2022-10-30T23:31:25.630Z,12.33
2022-10-30T23:33:54.304Z,12.28
2022-10-30T23:36:21.172Z,12.19
2022-10-30T23:38:55.748Z,12.17
2022-10-30T23:41:24.604Z,12.19
2022-10-30T23:43:59.489Z,12.13
2022-10-30T23:46:27.310Z,12.08
2022-10-30T23:48:54.070Z,12.03
2022-10-30T23:51:21.579Z,12.01
2022-10-30T23:53:48.716Z,12.00
2022-10-30T23:56:16.316Z,11.88
2022-10-30T23:58:47.334Z,11.86
